createdAt,value
2022-10-22T00:01:20.458Z,98530.20
2022-10-22T00:04:32.854Z,98534.00
2022-10-22T00:07:43.977Z,98525.80
2022-10-22T00:10:53.114Z,98522.20
2022-10-22T00:14:02.864Z,98526.80
2022-10-22T00:17:11.764Z,98530.00
2022-10-22T00:20:20.746Z,98526.40
2022-10-22T00:23:28.776Z,98535.60
2022-10-22T00:26:36.766Z,98542.20
2022-10-22T00:29:45.516Z,98533.80
2022-10-22T00:32:53.850Z,98524.80
2022-10-22T00:36:03.194Z,98517.80
2022-10-22T00:39:14.037Z,98507.60
2022-10-22T00:42:29.604Z,98501.60
2022-10-22T00:45:38.374Z,98515.20
2022-10-22T00:48:46.464Z,98523.00
2022-10-22T00:51:54.986Z,98512.60
2022-10-22T00:55:04.226Z,98505.20
2022-10-22T00:58:14.265Z,98510.60
2022-10-22T01:01:24.070Z,98524.20
2022-10-22T01:04:30.975Z,98524.40
2022-10-22T01:07:49.066Z,98524.20
2022-10-22T01:11:15.559Z,98515.00
2022-10-22T01:14:37.234Z,98507.00
2022-10-22T01:17:57.289Z,98500.20
2022-10-22T01:21:16.583Z,98497.20
2022-10-22T01:24:41.148Z,98492.80
2022-10-22T01:28:07.944Z,98489.60
2022-10-22T01:31:19.758Z,98487.40
2022-10-22T01:34:30.100Z,98490.40
2022-10-22T01:37:44.357Z,98480.00
2022-10-22T01:40:54.768Z,98472.80
2022-10-22T01:44:03.332Z,98468.60
2022-10-22T01:47:27.790Z,98460.20
2022-10-22T01:51:08.816Z,98458.60
2022-10-22T01:54:31.010Z,98459.20
2022-10-22T01:57:52.940Z,98455.60
2022-10-22T02:01:10.203Z,98451.20
2022-10-22T02:04:27.121Z,98460.40
2022-10-22T02:07:41.679Z,98472.40
2022-10-22T02:10:54.786Z,98486.00
2022-10-22T02:14:06.880Z,98487.80
2022-10-22T02:17:20.585Z,98486.60
2022-10-22T02:20:34.491Z,98485.40
2022-10-22T02:23:43.456Z,98473.20
2022-10-22T02:27:01.876Z,98476.40
2022-10-22T02:33:31.079Z,98481.00
2022-10-22T02:36:44.441Z,98490.00
2022-10-22T02:39:57.527Z,98493.60
2022-10-22T02:43:09.444Z,98491.40
2022-10-22T02:46:17.256Z,98497.40
2022-10-22T02:49:25.375Z,98499.80
2022-10-22T02:52:33.511Z,98495.60
2022-10-22T02:55:42.189Z,98488.40
2022-10-22T02:58:49.997Z,98494.00
2022-10-22T03:01:58.296Z,98496.40
2022-10-22T03:05:06.967Z,98503.60
2022-10-22T03:08:15.063Z,98502.60
2022-10-22T03:11:22.917Z,98493.80
2022-10-22T03:14:30.941Z,98493.60
2022-10-22T03:17:38.804Z,98490.00
2022-10-22T03:20:47.571Z,98490.00
2022-10-22T03:23:57.110Z,98490.00
2022-10-22T03:27:07.168Z,98482.40
2022-10-22T03:30:16.391Z,98469.40
2022-10-22T03:33:24.472Z,98468.00
2022-10-22T03:36:32.882Z,98455.00
2022-10-22T03:39:42.068Z,98439.20
2022-10-22T03:42:50.285Z,98426.60
2022-10-22T03:45:58.255Z,98424.80
2022-10-22T03:49:05.931Z,98431.00
2022-10-22T03:52:16.369Z,98442.40
2022-10-22T03:55:24.695Z,98448.60
2022-10-22T03:58:32.758Z,98448.20
2022-10-22T04:01:40.857Z,98451.00
2022-10-22T04:04:49.197Z,98456.00
2022-10-22T04:07:56.987Z,98453.40
2022-10-22T04:11:05.142Z,98441.00
2022-10-22T04:14:13.212Z,98440.20
2022-10-22T04:17:21.339Z,98446.80
2022-10-22T04:20:29.215Z,98450.20
2022-10-22T04:23:38.012Z,98457.60
2022-10-22T04:26:46.188Z,98461.80
2022-10-22T04:29:54.108Z,98468.60
2022-10-22T04:33:01.784Z,98479.00
2022-10-22T04:36:15.107Z,98484.20
2022-10-22T04:39:22.844Z,98473.60
2022-10-22T04:42:32.981Z,98460.40
2022-10-22T04:45:40.985Z,98451.60
2022-10-22T04:48:49.926Z,98442.60
2022-10-22T04:51:58.397Z,98444.40
2022-10-22T04:55:07.163Z,98440.00
2022-10-22T04:58:14.889Z,98437.40
2022-10-22T05:01:26.576Z,98442.60
2022-10-22T05:04:34.684Z,98431.80
2022-10-22T05:07:43.072Z,98423.40
2022-10-22T05:10:51.064Z,98418.60
2022-10-22T05:14:01.977Z,98422.40
2022-10-22T05:17:10.161Z,98424.00
2022-10-22T05:20:18.601Z,98424.00
2022-10-22T05:23:28.258Z,98439.00
2022-10-22T05:26:36.401Z,98441.00
2022-10-22T05:29:44.572Z,98438.00
2022-10-22T05:32:52.651Z,98435.00
2022-10-22T05:36:01.915Z,98436.40
2022-10-22T05:39:11.289Z,98442.20
2022-10-22T05:42:19.140Z,98448.60
2022-10-22T05:45:27.251Z,98457.00
2022-10-22T05:48:36.004Z,98459.00
2022-10-22T05:51:44.079Z,98454.00
2022-10-22T05:54:51.814Z,98457.80
2022-10-22T05:58:02.930Z,98458.40
2022-10-22T06:01:16.133Z,98466.00
2022-10-22T06:04:24.026Z,98463.20
2022-10-22T06:07:33.424Z,98467.40
2022-10-22T06:10:44.665Z,98474.00
2022-10-22T06:17:05.346Z,98468.80
2022-10-22T06:20:15.856Z,98472.60
2022-10-22T06:23:24.738Z,98476.80
2022-10-22T06:26:33.698Z,98478.20
2022-10-22T06:29:44.153Z,98482.40
2022-10-22T06:32:54.494Z,98485.00
2022-10-22T06:36:08.136Z,98480.00
2022-10-22T06:39:18.719Z,98477.40
2022-10-22T06:42:26.923Z,98474.80
2022-10-22T06:45:34.810Z,98475.80
2022-10-22T06:48:43.790Z,98484.20
2022-10-22T06:51:54.687Z,98501.00
2022-10-22T06:55:03.443Z,98501.80
2022-10-22T06:58:11.674Z,98493.20
2022-10-22T07:01:21.936Z,98481.40
2022-10-22T07:04:29.832Z,98492.00
2022-10-22T07:07:38.163Z,98488.60
2022-10-22T07:10:45.871Z,98481.20
2022-10-22T07:13:55.704Z,98474.00
2022-10-22T07:17:03.494Z,98484.20
2022-10-22T07:20:14.013Z,98481.00
2022-10-22T07:23:21.815Z,98489.80
2022-10-22T07:26:31.236Z,98478.20
2022-10-22T07:29:39.147Z,98473.00
2022-10-22T07:32:47.284Z,98464.60
2022-10-22T07:36:00.992Z,98462.40
2022-10-22T07:39:09.270Z,98474.80
2022-10-22T07:42:17.858Z,98477.60
2022-10-22T07:45:26.018Z,98476.80
2022-10-22T07:48:33.714Z,98478.00
2022-10-22T07:51:41.698Z,98470.60
2022-10-22T07:54:49.416Z,98471.00
2022-10-22T07:57:58.988Z,98470.60
2022-10-22T08:01:06.931Z,98478.80
2022-10-22T08:04:15.124Z,98477.40
2022-10-22T08:07:22.825Z,98470.20
2022-10-22T08:10:31.889Z,98477.80
2022-10-22T08:13:44.828Z,98475.40
2022-10-22T08:16:54.089Z,98486.00
2022-10-22T08:20:01.779Z,98485.80
2022-10-22T08:23:10.391Z,98491.60
2022-10-22T08:26:18.309Z,98495.00
2022-10-22T08:29:26.989Z,98503.60
2022-10-22T08:32:35.224Z,98510.40
2022-10-22T08:35:44.060Z,98512.20
2022-10-22T08:38:52.166Z,98505.00
2022-10-22T08:42:28.828Z,98508.60
2022-10-22T08:45:46.383Z,98517.80
2022-10-22T08:48:58.668Z,98520.40
2022-10-22T08:52:07.012Z,98506.20
2022-10-22T08:55:18.799Z,98510.80
2022-10-22T08:58:36.638Z,98499.20
2022-10-22T09:01:49.379Z,98487.60
2022-10-22T09:05:12.275Z,98502.00
2022-10-22T09:08:22.914Z,98511.20
2022-10-22T09:11:36.097Z,98507.20
2022-10-22T09:14:44.454Z,98525.40
2022-10-22T09:18:19.481Z,98521.00
2022-10-22T09:21:37.845Z,98523.60
2022-10-22T09:24:50.566Z,98514.00
2022-10-22T09:27:59.698Z,98518.20
2022-10-22T09:31:15.923Z,98528.00
2022-10-22T09:34:26.025Z,98530.00
2022-10-22T09:37:35.068Z,98531.60
2022-10-22T09:40:52.571Z,98541.20
2022-10-22T09:44:00.737Z,98532.60
2022-10-22T09:47:42.709Z,98529.40
2022-10-22T09:51:08.231Z,98520.60
2022-10-22T09:54:25.748Z,98520.40
2022-10-22T09:57:38.729Z,98515.00
2022-10-22T10:00:55.863Z,98525.40
2022-10-22T10:04:11.420Z,98519.20
2022-10-22T10:07:26.762Z,98513.40
2022-10-22T10:10:46.770Z,98503.00
2022-10-22T10:14:06.351Z,98497.00
2022-10-22T10:17:27.390Z,98493.40
2022-10-22T10:20:47.501Z,98497.20
2022-10-22T10:24:04.556Z,98497.40
2022-10-22T10:27:21.815Z,98495.40
2022-10-22T10:30:30.023Z,98499.60
2022-10-22T10:33:54.550Z,98502.20
2022-10-22T10:37:19.996Z,98513.60
2022-10-22T10:40:40.967Z,98512.00
2022-10-22T10:44:06.219Z,98518.80
2022-10-22T10:47:34.008Z,98525.40
2022-10-22T10:50:55.720Z,98517.80
2022-10-22T10:54:23.541Z,98517.20
2022-10-22T10:57:48.007Z,98521.80
2022-10-22T11:01:03.816Z,98525.20
2022-10-22T11:04:54.689Z,98529.00
2022-10-22T11:08:07.840Z,98525.00
2022-10-22T11:11:23.571Z,98525.00
2022-10-22T11:14:40.637Z,98522.80
2022-10-22T11:17:53.285Z,98534.00
2022-10-22T11:21:18.620Z,98524.00
2022-10-22T11:24:34.501Z,98518.60
2022-10-22T11:27:50.225Z,98521.20
2022-10-22T11:31:06.408Z,98512.80
2022-10-22T11:34:38.619Z,98510.00
2022-10-22T11:37:49.210Z,98504.80
2022-10-22T11:41:03.081Z,98503.60
2022-10-22T11:44:22.408Z,98495.40
2022-10-22T11:47:34.148Z,98505.60
2022-10-22T11:50:56.857Z,98497.00
2022-10-22T11:54:33.198Z,98496.40
2022-10-22T11:57:44.916Z,98505.00
2022-10-22T12:00:53.897Z,98509.00
2022-10-22T12:04:43.182Z,98508.80
2022-10-22T12:08:00.873Z,98499.00
2022-10-22T12:11:29.892Z,98486.80
2022-10-22T12:14:53.177Z,98487.60
2022-10-22T12:18:08.314Z,98481.00
2022-10-22T12:21:19.022Z,98478.20
2022-10-22T12:24:31.739Z,98477.40
2022-10-22T12:27:42.488Z,98475.80
2022-10-22T12:30:50.569Z,98480.40
2022-10-22T12:34:05.758Z,98482.60
2022-10-22T12:37:17.051Z,98484.00
2022-10-22T12:40:29.087Z,98484.00
2022-10-22T12:43:39.666Z,98493.80
2022-10-22T12:46:53.068Z,98511.60
2022-10-22T12:50:09.258Z,98514.00
2022-10-22T12:53:24.082Z,98515.20
2022-10-22T12:56:37.836Z,98521.80
2022-10-22T12:59:49.964Z,98509.20
2022-10-22T13:03:04.363Z,98516.20
2022-10-22T13:06:27.619Z,98502.40
2022-10-22T13:09:44.499Z,98500.20
2022-10-22T13:12:58.679Z,98509.40
2022-10-22T13:16:24.314Z,98523.20
2022-10-22T13:20:05.560Z,98523.20
2022-10-22T13:23:26.657Z,98521.60
2022-10-22T13:26:40.002Z,98512.40
2022-10-22T13:29:48.775Z,98511.60
2022-10-22T13:33:00.412Z,98515.20
2022-10-22T13:36:11.383Z,98510.00
2022-10-22T13:39:23.536Z,98509.20
2022-10-22T13:42:31.506Z,98514.00
2022-10-22T13:45:40.044Z,98509.40
2022-10-22T13:48:50.503Z,98512.60
2022-10-22T13:52:01.309Z,98525.40
2022-10-22T13:55:20.127Z,98528.60
2022-10-22T13:58:28.976Z,98529.60
2022-10-22T14:01:37.762Z,98528.00
2022-10-22T14:04:47.143Z,98531.20
2022-10-22T14:07:58.419Z,98531.00
2022-10-22T14:11:07.123Z,98536.40
2022-10-22T14:14:17.509Z,98535.00
2022-10-22T14:17:25.896Z,98532.40
2022-10-22T14:20:37.616Z,98528.60
2022-10-22T14:23:48.584Z,98530.60
2022-10-22T14:26:56.620Z,98542.00
2022-10-22T14:30:05.137Z,98533.00
2022-10-22T14:33:20.892Z,98539.40
2022-10-22T14:36:29.614Z,98541.00
2022-10-22T14:39:38.109Z,98547.20
2022-10-22T14:42:49.116Z,98549.60
2022-10-22T14:45:57.181Z,98545.00
2022-10-22T14:49:05.267Z,98539.80
2022-10-22T14:52:14.915Z,98539.40
2022-10-22T14:55:24.239Z,98543.20
2022-10-22T14:58:31.951Z,98545.80
2022-10-22T15:01:42.635Z,98544.40
2022-10-22T15:04:50.583Z,98541.80
2022-10-22T15:07:59.557Z,98540.60
2022-10-22T15:11:11.531Z,98539.40
2022-10-22T15:14:19.419Z,98546.40
2022-10-22T15:17:27.239Z,98540.00
2022-10-22T15:20:35.551Z,98531.60
2022-10-22T15:23:43.383Z,98540.60
2022-10-22T15:26:54.261Z,98546.40
2022-10-22T15:33:11.020Z,98544.00
2022-10-22T15:36:20.361Z,98538.20
2022-10-22T15:39:29.261Z,98536.80
2022-10-22T15:42:37.171Z,98539.40
2022-10-22T15:45:45.559Z,98541.20
2022-10-22T15:48:55.459Z,98548.60
2022-10-22T15:52:04.326Z,98547.20
2022-10-22T15:58:25.843Z,98560.40
2022-10-22T16:01:35.826Z,98573.80
2022-10-22T16:04:44.133Z,98573.20
2022-10-22T16:07:55.770Z,98583.40
2022-10-22T16:11:04.147Z,98590.80
2022-10-22T16:14:14.814Z,98597.40
2022-10-22T16:17:23.502Z,98607.60
2022-10-22T16:20:31.352Z,98622.00
2022-10-22T16:23:39.671Z,98632.60
2022-10-22T16:26:47.875Z,98631.60
2022-10-22T16:29:56.860Z,98638.80
2022-10-22T16:33:05.658Z,98646.60
2022-10-22T16:36:18.094Z,98652.20
2022-10-22T16:39:26.054Z,98654.40
2022-10-22T16:42:34.220Z,98663.00
2022-10-22T16:45:48.006Z,98665.60
2022-10-22T16:48:57.384Z,98666.60
2022-10-22T16:52:05.633Z,98669.00
2022-10-22T16:55:14.471Z,98657.80
2022-10-22T16:58:22.645Z,98667.00
2022-10-22T17:01:31.537Z,98661.80
2022-10-22T17:04:40.133Z,98666.20
2022-10-22T17:07:48.470Z,98663.20
2022-10-22T17:10:57.046Z,98663.40
2022-10-22T17:14:05.424Z,98666.00
2022-10-22T17:17:13.300Z,98674.60
2022-10-22T17:20:21.901Z,98671.40
2022-10-22T17:23:29.924Z,98662.60
2022-10-22T17:26:38.030Z,98656.00
2022-10-22T17:29:45.907Z,98661.00
2022-10-22T17:32:55.002Z,98672.40
2022-10-22T17:36:03.604Z,98678.00
2022-10-22T17:39:17.143Z,98677.20
2022-10-22T17:42:24.915Z,98679.00
2022-10-22T17:45:33.212Z,98656.40
2022-10-22T17:48:41.670Z,98669.40
2022-10-22T17:51:50.195Z,98679.00
2022-10-22T17:54:58.431Z,98692.80
2022-10-22T17:58:06.369Z,98689.00
2022-10-22T18:01:23.534Z,98694.60
2022-10-22T18:04:34.248Z,98704.40
2022-10-22T18:07:42.004Z,98710.00
2022-10-22T18:10:50.447Z,98710.00
2022-10-22T18:14:00.108Z,98716.40
2022-10-22T18:17:08.515Z,98718.60
2022-10-22T18:20:17.287Z,98723.20
2022-10-22T18:23:25.423Z,98720.00
2022-10-22T18:26:33.450Z,98719.60
2022-10-22T18:29:41.863Z,98716.20
2022-10-22T18:32:51.900Z,98722.80
2022-10-22T18:36:04.225Z,98724.60
2022-10-22T18:39:15.989Z,98737.00
2022-10-22T18:42:25.483Z,98744.00
2022-10-22T18:45:35.624Z,98727.20
2022-10-22T18:48:43.679Z,98747.40
2022-10-22T18:51:53.382Z,98754.00
2022-10-22T18:54:59.955Z,98756.80
2022-10-22T18:58:08.204Z,98753.80
2022-10-22T19:01:19.867Z,98754.80
2022-10-22T19:04:33.321Z,98754.00
2022-10-22T19:07:42.282Z,98746.20
2022-10-22T19:10:50.910Z,98746.20
2022-10-22T19:14:00.843Z,98747.60
2022-10-22T19:17:07.252Z,98757.60
2022-10-22T19:20:16.217Z,98764.00
2022-10-22T19:23:24.007Z,98759.00
2022-10-22T19:26:33.967Z,98766.60
2022-10-22T19:29:40.444Z,98772.40
2022-10-22T19:32:49.926Z,98780.00
2022-10-22T19:35:57.979Z,98781.00
2022-10-22T19:39:07.831Z,98781.60
2022-10-22T19:42:15.564Z,98786.60
2022-10-22T19:45:23.652Z,98788.20
2022-10-22T19:48:31.726Z,98797.60
2022-10-22T19:51:40.254Z,98794.20
2022-10-22T19:54:48.379Z,98798.60
2022-10-22T19:57:56.851Z,98800.20
2022-10-22T20:01:10.854Z,98805.40
2022-10-22T20:04:25.057Z,98815.00
2022-10-22T20:07:33.593Z,98810.40
2022-10-22T20:10:41.926Z,98818.20
2022-10-22T20:13:52.269Z,98814.60
2022-10-22T20:17:00.650Z,98813.60
2022-10-22T20:20:10.565Z,98817.60
2022-10-22T20:23:17.289Z,98820.40
2022-10-22T20:26:28.276Z,98816.20
2022-10-22T20:29:36.719Z,98809.80
2022-10-22T20:32:44.912Z,98815.20
2022-10-22T20:36:03.751Z,98813.80
2022-10-22T20:39:16.547Z,98826.60
2022-10-22T20:42:24.602Z,98821.40
2022-10-22T20:45:32.954Z,98824.80
2022-10-22T20:48:43.195Z,98830.60
2022-10-22T20:51:51.419Z,98828.40
2022-10-22T20:55:00.115Z,98836.20
2022-10-22T20:58:08.269Z,98833.00
2022-10-22T21:01:21.481Z,98837.20
2022-10-22T21:04:31.031Z,98833.80
2022-10-22T21:07:39.920Z,98841.60
2022-10-22T21:10:49.315Z,98844.40
2022-10-22T21:13:57.451Z,98846.00
2022-10-22T21:17:05.320Z,98853.20
2022-10-22T21:20:14.026Z,98851.80
2022-10-22T21:23:22.134Z,98847.40
2022-10-22T21:26:31.078Z,98852.60
2022-10-22T21:29:39.294Z,98853.80
2022-10-22T21:32:47.260Z,98855.20
2022-10-22T21:35:59.841Z,98856.80
2022-10-22T21:39:08.217Z,98858.00
2022-10-22T21:42:19.709Z,98856.20
2022-10-22T21:45:27.725Z,98855.60
2022-10-22T21:48:35.435Z,98851.40
2022-10-22T21:51:44.360Z,98858.60
2022-10-22T21:54:52.823Z,98861.20
2022-10-22T21:58:01.294Z,98862.00
2022-10-22T22:01:10.184Z,98854.20
2022-10-22T22:04:18.456Z,98854.80
2022-10-22T22:07:26.681Z,98854.60
2022-10-22T22:10:35.039Z,98858.00
2022-10-22T22:13:43.828Z,98854.80
2022-10-22T22:16:51.829Z,98857.20
2022-10-22T22:20:00.545Z,98866.40
2022-10-22T22:23:08.729Z,98868.60
2022-10-22T22:26:20.080Z,98867.40
2022-10-22T22:29:28.937Z,98876.40
2022-10-22T22:32:37.777Z,98881.00
2022-10-22T22:35:46.055Z,98880.40
2022-10-22T22:38:57.887Z,98885.40
2022-10-22T22:42:06.007Z,98888.80
2022-10-22T22:45:14.841Z,98897.60
2022-10-22T22:48:22.843Z,98914.60
2022-10-22T22:51:30.832Z,98915.60
2022-10-22T22:54:39.179Z,98917.20
2022-10-22T22:57:47.162Z,98909.80
2022-10-22T23:00:55.809Z,98910.00
2022-10-22T23:04:06.242Z,98911.80
2022-10-22T23:07:14.560Z,98915.40
2022-10-22T23:10:22.977Z,98922.60
2022-10-22T23:13:31.183Z,98919.00
2022-10-22T23:16:45.658Z,98912.60
2022-10-22T23:19:54.170Z,98913.40
2022-10-22T23:23:02.076Z,98907.00
2022-10-22T23:26:13.673Z,98902.80
2022-10-22T23:29:24.861Z,98902.40
2022-10-22T23:32:32.854Z,98905.80
2022-10-22T23:35:44.244Z,98908.00
2022-10-22T23:38:52.180Z,98908.60
2022-10-22T23:42:02.061Z,98900.20
2022-10-22T23:45:11.778Z,98902.40
2022-10-22T23:48:19.904Z,98908.20
2022-10-22T23:51:28.296Z,98910.00
2022-10-22T23:54:36.388Z,98904.60
2022-10-22T23:57:44.526Z,98912.60
